Monday, December 18, 2017, 12:54 PM GMT
Back to Local

CWKG, Kejimkujik 1, N. S.

Location: , , Canada Lat: 44.433
Local Time: 12:54 PM GMT (12:54 GMT) Lon: -65.2
Time Zone: GMT Elev: 416 ft

Show me the last for .
Show Coded

Time T Td Feel RH Dir Speed Gust Alt SLP Vis Weather Sky Remarks
2017-12-18 12:00 8 5 - 86 290° 1 - - 30.18 0 None
2017-12-18 11:00 8 5 - 84 320° 1 - - 30.18 0 None
2017-12-18 10:00 8 5 - 86 290° 2 - - 30.19 0 None
2017-12-18 09:00 8 8 - 97 300° 2 - - 30.19 0 None
2017-12-18 08:00 8 5 - 86 350° 2 - - 30.17 0 None
2017-12-18 07:00 10 7 - 85 340° 1 - - 30.17 0 None
2017-12-18 06:00 13 8 - 82 350° 2 - - 30.16 0 None
2017-12-18 05:00 14 9 - 79 350° 2 - - 30.17 0 None
2017-12-18 04:00 15 10 8 78 320° 5 - - 30.17 0 None
2017-12-18 03:00 16 11 8 79 350° 6 - - 30.16 0 None
2017-12-18 02:00 16 11 7 81 340° 6 - - 30.15 0 None
2017-12-18 01:00 16 11 10 81 340° 3 - - 30.14 0 None
2017-12-18 00:00 16 11 7 79 330° 6 - - 30.12 0 None
2017-12-17 23:00 17 11 8 79 310° 6 - - 30.11 0 None
2017-12-17 22:00 18 13 9 80 310° 6 - - 30.09 0 None
2017-12-17 21:00 19 13 11 79 290° 6 - - 30.08 0 None
2017-12-17 20:00 20 14 12 76 300° 6 - - 30.06 0 Peak wind: 19 mph (17 kts) from 340° at 08 min
2017-12-17 19:00 21 13 6 70 310° 7 17 - 30.06 0 Peak wind: 21 mph (19 kts) from 300° at 35 min
2017-12-17 18:00 22 15 7 73 300° 9 18 - 30.04 0 None
2017-12-17 17:00 22 12 12 64 310° 9 - - 30.05 0 Peak wind: 20 mph (18 kts) from 300° at 24 min
2017-12-17 16:00 21 13 11 72 320° 8 - - 30.06 0 Peak wind: 23 mph (20 kts) from 320° at 24 min
2017-12-17 15:00 20 14 11 77 310° 7 - - 30.07 0 None
2017-12-17 14:00 19 12 11 75 320° 6 - - 30.07 0 None
2017-12-17 13:00 15 11 7 83 320° 6 - - 30.06 0 None

Support USWX by starting your Amazon purchase here.